Time;durP1;ratioP1;P1;durP2;ratioP2;P2;SDS_P1;SDS_P2;PMS_P1;PMS_P2;Temp;Humidity;BMP_temperature;BMP_pressure;BME280_temperature;BME280_humidity;BME280_pressure;Samples;Min_cycle;Max_cycle;Signal;HPM_P1;HPM_P2
2021/07/12 00:01:59;;;;;;;13.63;10.23;;;;;;;18.87;78.54;94947.81;5111466;27;20061;-78
2021/07/12 00:04:26;;;;;;;17.60;11.20;;;;;;;19.00;78.08;94962.22;5109891;27;20048;-78
2021/07/12 00:06:53;;;;;;;13.38;10.45;;;;;;;19.02;77.89;94970.63;5109874;28;20031;-78
2021/07/12 00:09:20;;;;;;;12.45;11.13;;;;;;;18.96;77.93;94966.47;5112699;27;20032;-78
2021/07/12 00:11:47;;;;;;;11.45;10.25;;;;;;;18.75;79.24;94964.00;5112367;27;20601;-77
2021/07/12 00:14:14;;;;;;;15.15;10.50;;;;;;;18.37;81.77;94969.09;5115126;27;20535;-78
2021/07/12 00:16:40;;;;;;;16.67;11.48;;;;;;;18.21;82.30;94946.56;5110695;27;20039;-78
2021/07/12 00:19:07;;;;;;;12.57;11.20;;;;;;;18.12;83.66;94960.31;5110771;27;20432;-78
2021/07/12 00:21:34;;;;;;;14.38;11.45;;;;;;;18.09;84.36;94960.84;5112335;27;20497;-77
2021/07/12 00:24:01;;;;;;;14.07;11.63;;;;;;;17.95;85.46;94965.16;5108262;27;20414;-78
2021/07/12 00:26:28;;;;;;;17.95;11.95;;;;;;;18.02;85.11;94963.00;5110019;27;20523;-78
2021/07/12 00:28:55;;;;;;;15.13;12.02;;;;;;;17.87;86.43;94969.19;5092442;27;20043;-77
2021/07/12 00:31:21;;;;;;;15.75;12.65;;;;;;;17.75;87.60;94972.13;5115046;27;20047;-78
2021/07/12 00:33:49;;;;;;;13.65;12.02;;;;;;;17.77;87.03;94975.28;5117043;27;20043;-78
2021/07/12 00:36:16;;;;;;;16.83;14.13;;;;;;;17.74;87.26;94969.75;5114413;27;20028;-78
2021/07/12 00:38:43;;;;;;;14.55;12.20;;;;;;;17.82;86.62;94965.75;5113159;27;20047;-79
2021/07/12 00:41:10;;;;;;;14.00;11.40;;;;;;;17.69;86.04;94944.22;5113556;27;20047;-77
2021/07/12 00:43:38;;;;;;;16.05;11.65;;;;;;;17.71;86.85;94965.81;5110148;27;20118;-77
2021/07/12 00:46:08;;;;;;;15.32;12.23;;;;;;;17.74;86.60;94975.81;5109245;28;20781;-78
2021/07/12 00:48:37;;;;;;;16.10;12.30;;;;;;;17.68;87.34;94971.63;5093339;27;20046;-77
2021/07/12 00:51:04;;;;;;;13.25;11.80;;;;;;;17.82;86.41;94960.50;5112032;27;20059;-78
2021/07/12 00:53:31;;;;;;;16.48;11.32;;;;;;;17.92;85.78;94955.97;5092576;27;20039;-76
2021/07/12 00:55:59;;;;;;;17.17;11.75;;;;;;;17.87;85.60;94947.31;5114223;27;20070;-77
2021/07/12 00:58:27;;;;;;;17.30;11.45;;;;;;;18.02;84.38;94949.84;5110180;27;20570;-78
2021/07/12 01:00:59;;;;;;;18.08;11.43;;;;;;;18.04;84.55;94958.28;5119263;27;20040;-77
2021/07/12 01:03:28;;;;;;;12.82;11.23;;;;;;;17.91;85.27;94956.25;5096529;28;20051;-77
2021/07/12 01:05:57;;;;;;;18.00;10.98;;;;;;;17.81;85.95;94964.16;5111333;27;20031;-78
2021/07/12 01:08:25;;;;;;;17.15;10.95;;;;;;;17.92;85.38;94965.72;5120746;27;20152;-78
2021/07/12 01:11:11;;;;;;;14.57;12.05;;;;;;;17.77;85.65;94943.66;5118181;27;20039;-78
2021/07/12 01:13:49;;;;;;;14.20;11.65;;;;;;;17.95;85.50;94962.53;5114454;27;20162;-76
2021/07/12 01:16:44;;;;;;;12.23;10.63;;;;;;;17.92;85.03;94965.72;5091077;28;20544;-77
2021/07/12 01:19:50;;;;;;;12.90;11.02;;;;;;;18.04;84.81;94979.34;5087925;28;20501;-77
2021/07/12 01:22:35;;;;;;;;;;;;;;;18.03;85.17;94977.78;5109276;27;20043;-77
2021/07/12 01:25:39;;;;;;;16.38;11.63;;;;;;;17.92;85.67;94973.63;5110293;27;19928;-75
2021/07/12 01:28:37;;;;;;;17.17;12.10;;;;;;;17.91;85.78;94974.69;5110482;27;20047;-76
2021/07/12 01:31:26;;;;;;;12.23;10.77;;;;;;;18.04;84.84;94971.47;5072940;28;20039;-77
2021/07/12 01:34:06;;;;;;;14.25;11.45;;;;;;;18.17;83.94;94971.88;5088535;28;20043;-77
2021/07/12 01:36:41;;;;;;;12.88;11.50;;;;;;;18.20;83.78;94972.09;5108237;27;20038;-78
2021/07/12 01:39:13;;;;;;;14.70;11.50;;;;;;;18.21;83.46;94973.69;5086881;28;20509;-77
2021/07/12 01:41:51;;;;;;;13.30;11.40;;;;;;;18.15;83.60;94970.31;5089413;28;20047;-76
2021/07/12 01:44:31;;;;;;;12.40;11.10;;;;;;;18.05;84.24;94965.09;5107596;27;20047;-76
2021/07/12 01:46:59;;;;;;;12.52;10.95;;;;;;;18.10;83.89;94967.72;5089378;27;20047;-76
2021/07/12 01:49:58;;;;;;;14.85;12.80;;;;;;;18.09;83.55;94966.13;5107943;28;20146;-76
2021/07/12 01:53:04;;;;;;;19.10;10.85;;;;;;;18.22;82.64;94963.94;5091358;27;20555;-77
2021/07/12 01:55:39;;;;;;;13.60;11.00;;;;;;;18.25;82.51;94963.38;5091375;28;20035;-77
2021/07/12 01:58:16;;;;;;;14.55;10.95;;;;;;;18.28;82.38;94968.91;5110532;27;20089;-78
2021/07/12 02:00:49;;;;;;;14.10;11.15;;;;;;;18.34;81.68;94959.09;5092633;28;20035;-78
2021/07/12 02:03:18;;;;;;;14.73;10.75;;;;;;;18.41;81.63;94954.28;5092857;28;20051;-78
2021/07/12 02:05:48;;;;;;;13.32;10.18;;;;;;;18.45;80.83;94952.66;5093413;28;20558;-78
2021/07/12 02:08:21;;;;;;;16.70;11.25;;;;;;;18.43;81.29;94959.28;5092730;28;20040;-78
2021/07/12 02:10:51;;;;;;;;;;;;;;;18.37;80.98;94958.53;5092247;28;20047;-78
2021/07/12 02:13:23;;;;;;;13.85;10.38;;;;;;;18.28;81.64;94962.84;5093764;28;20431;-77
2021/07/12 02:16:02;;;;;;;14.30;10.30;;;;;;;18.29;81.77;94959.13;5089150;28;20044;-78
2021/07/12 02:18:35;;;;;;;15.80;10.77;;;;;;;18.30;81.38;94960.72;5107372;28;20040;-77
2021/07/12 02:21:13;;;;;;;18.10;11.25;;;;;;;18.29;81.85;94962.56;5089361;28;20047;-78
2021/07/12 02:23:46;;;;;;;11.68;10.48;;;;;;;18.26;82.15;94970.25;5090970;28;20035;-77
2021/07/12 02:26:15;;;;;;;16.65;11.85;;;;;;;18.10;82.60;94957.16;5090098;28;20050;-78
2021/07/12 02:28:44;;;;;;;13.82;11.40;;;;;;;18.22;82.67;94963.94;5090315;28;20046;-78
2021/07/12 02:31:14;;;;;;;11.43;10.32;;;;;;;18.23;82.38;94966.28;5106623;28;20038;-78
2021/07/12 02:33:43;;;;;;;15.05;10.52;;;;;;;18.23;82.14;94965.50;5108418;28;20084;-78
2021/07/12 02:36:12;;;;;;;13.25;10.85;;;;;;;18.12;82.99;94965.59;5089542;28;20520;-78
2021/07/12 02:38:41;;;;;;;13.15;10.75;;;;;;;17.99;84.14;94960.13;5090220;28;20136;-78
2021/07/12 02:41:12;;;;;;;15.32;11.07;;;;;;;17.95;83.54;94954.63;5087306;28;20051;-78
2021/07/12 02:43:40;;;;;;;12.50;10.98;;;;;;;18.09;82.39;94960.84;5092778;28;20035;-77
2021/07/12 02:46:07;;;;;;;11.05;9.52;;;;;;;18.15;82.36;94965.03;5108193;28;20039;-78
2021/07/12 02:48:34;;;;;;;12.80;10.07;;;;;;;18.17;82.28;94961.31;5107803;27;20401;-78
2021/07/12 02:51:11;;;;;;;11.63;10.18;;;;;;;18.20;81.83;94960.78;5112180;27;20500;-78
2021/07/12 02:53:57;;;;;;;12.00;10.20;;;;;;;18.32;81.22;94972.53;5091668;28;20513;-78
2021/07/12 02:56:24;;;;;;;12.88;9.90;;;;;;;18.22;81.04;94954.19;5093042;27;20039;-78
2021/07/12 02:58:51;;;;;;;11.57;10.38;;;;;;;18.36;81.06;94962.22;5091830;28;20039;-78
2021/07/12 03:01:21;;;;;;;12.90;10.00;;;;;;;18.46;80.78;94964.78;5096664;28;20048;-75
2021/07/12 03:03:48;;;;;;;11.27;10.05;;;;;;;18.40;80.98;94971.19;5092072;28;20075;-77
2021/07/12 03:06:18;;;;;;;21.48;11.10;;;;;;;18.26;81.90;94964.97;5094652;27;20379;-77
2021/07/12 03:09:07;;;;;;;16.35;10.70;;;;;;;18.19;82.07;94965.28;5094648;28;20047;-76
2021/07/12 03:11:44;;;;;;;16.42;11.07;;;;;;;18.12;82.06;94976.13;5111253;27;20055;-77
2021/07/12 03:14:14;;;;;;;17.67;12.30;;;;;;;17.99;82.79;94976.75;5092456;28;20601;-77
2021/07/12 03:16:42;;;;;;;19.55;12.35;;;;;;;17.80;83.94;94970.50;5113227;27;20489;-77
2021/07/12 03:19:16;;;;;;;14.27;11.82;;;;;;;17.55;84.58;94966.94;5093352;27;20043;-76
2021/07/12 03:21:44;;;;;;;17.30;12.68;;;;;;;17.48;85.46;94966.47;5113142;27;20046;-77
2021/07/12 03:24:14;;;;;;;16.40;13.05;;;;;;;17.52;85.41;94967.47;5092632;28;20043;-77
2021/07/12 03:26:43;;;;;;;16.48;12.27;;;;;;;17.52;85.54;94972.75;5111605;27;20150;-77
2021/07/12 03:29:14;;;;;;;22.75;12.43;;;;;;;17.54;85.60;94978.56;5092951;28;20051;-78
2021/07/12 03:31:43;;;;;;;17.52;11.98;;;;;;;17.61;85.90;94986.16;5113192;27;20115;-78
2021/07/12 03:34:15;;;;;;;14.90;12.02;;;;;;;17.61;85.47;94981.69;5113507;27;20427;-77
2021/07/12 03:36:48;;;;;;;25.60;12.93;;;;;;;17.60;85.46;94980.09;5095626;28;20148;-78
2021/07/12 03:39:16;;;;;;;25.20;13.32;;;;;;;17.51;85.97;94987.00;5091859;28;20040;-78
2021/07/12 03:41:43;;;;;;;29.45;14.20;;;;;;;17.46;86.48;94979.13;5094623;27;20039;-78
2021/07/12 03:44:11;;;;;;;22.33;14.32;;;;;;;17.50;86.73;94991.47;5109889;28;20036;-78
2021/07/12 03:46:45;;;;;;;28.15;13.68;;;;;;;17.53;86.88;94977.75;5092449;28;20493;-78
2021/07/12 03:49:15;;;;;;;25.42;14.43;;;;;;;17.63;87.19;94978.75;5110565;27;20568;-78
2021/07/12 03:51:48;;;;;;;22.67;13.75;;;;;;;17.66;86.84;94979.00;5095563;28;20039;-77
2021/07/12 03:54:16;;;;;;;22.30;14.00;;;;;;;17.54;88.46;94970.66;5109605;27;20059;-79
2021/07/12 03:56:44;;;;;;;19.20;13.43;;;;;;;17.67;88.05;94985.84;5095671;28;20035;-77
2021/07/12 03:59:11;;;;;;;24.63;13.43;;;;;;;17.71;87.82;94986.88;5110931;27;20046;-77
2021/07/12 04:01:38;;;;;;;25.55;13.60;;;;;;;17.69;88.71;94978.47;5108675;27;20524;-77
2021/07/12 04:04:05;;;;;;;20.13;13.18;;;;;;;17.76;88.97;94983.44;5116306;27;20093;-78
2021/07/12 04:06:32;;;;;;;23.42;13.55;;;;;;;17.83;88.35;94972.63;5111480;27;20050;-77
2021/07/12 04:08:59;;;;;;;21.60;13.88;;;;;;;17.98;87.87;94985.72;5111858;27;20040;-75
2021/07/12 04:11:31;;;;;;;16.65;13.45;;;;;;;18.02;88.13;94976.19;5095053;28;20058;-75
2021/07/12 04:13:58;;;;;;;24.33;14.80;;;;;;;18.04;88.03;94979.34;5109303;28;20093;-75
2021/07/12 04:16:25;;;;;;;22.42;13.45;;;;;;;18.12;88.24;94981.41;5094016;28;20032;-75
2021/07/12 04:18:52;;;;;;;20.23;14.02;;;;;;;18.22;88.49;94985.00;5112619;27;20055;-75
2021/07/12 04:21:19;;;;;;;24.27;16.20;;;;;;;18.20;88.76;94979.25;5117131;27;20052;-75
2021/07/12 04:23:46;;;;;;;16.05;13.05;;;;;;;18.17;88.97;94977.13;5113283;27;20055;-77
2021/07/12 04:26:13;;;;;;;23.73;15.20;;;;;;;18.24;88.74;94974.97;5111825;27;20979;-77
2021/07/12 04:28:40;;;;;;;23.48;16.60;;;;;;;18.27;88.86;94982.34;5093181;27;20059;-78
2021/07/12 04:31:07;;;;;;;17.15;14.80;;;;;;;18.36;88.51;94991.22;5094901;27;20400;-77
2021/07/12 04:33:34;;;;;;;18.05;14.70;;;;;;;18.39;89.22;94990.69;5112594;27;20039;-78
2021/07/12 04:36:02;;;;;;;18.38;14.80;;;;;;;18.43;88.43;94983.03;5090517;28;20130;-79
2021/07/12 04:38:29;;;;;;;28.58;14.25;;;;;;;18.50;88.20;94992.19;5108673;27;20519;-78
2021/07/12 04:40:56;;;;;;;19.98;13.43;;;;;;;18.56;88.00;94984.22;5107499;28;20036;-78
2021/07/12 04:43:24;;;;;;;20.05;14.30;;;;;;;18.58;87.25;94988.16;5090491;28;20087;-78
2021/07/12 04:45:51;;;;;;;19.35;14.32;;;;;;;18.71;87.93;94992.03;5088079;28;20417;-78
2021/07/12 04:48:18;;;;;;;20.65;13.95;;;;;;;18.64;86.70;94973.09;5088555;28;20127;-77
2021/07/12 04:50:45;;;;;;;25.00;13.77;;;;;;;18.86;86.59;94994.53;5107858;27;20042;-78
2021/07/12 04:53:12;;;;;;;22.00;14.05;;;;;;;18.97;87.13;95000.50;5107203;28;20059;-78
2021/07/12 04:55:39;;;;;;;22.88;14.18;;;;;;;19.01;86.98;94996.22;5109107;27;20517;-78
2021/07/12 04:58:07;;;;;;;17.77;14.07;;;;;;;19.03;86.74;94998.59;5108188;28;20044;-78
2021/07/12 05:00:36;;;;;;;17.27;14.02;;;;;;;19.02;86.34;94991.75;5109964;27;20047;-78
2021/07/12 05:03:06;;;;;;;21.63;14.95;;;;;;;19.06;86.29;95003.31;5109693;27;20044;-78
2021/07/12 05:05:33;;;;;;;16.88;13.02;;;;;;;19.13;86.50;94995.84;5111333;27;20114;-78
2021/07/12 05:08:00;;;;;;;21.23;14.50;;;;;;;19.16;85.23;94992.66;5109038;28;20032;-78
2021/07/12 05:10:27;;;;;;;25.17;14.80;;;;;;;19.20;84.70;94987.59;5108034;28;20040;-78
2021/07/12 05:12:54;;;;;;;19.30;13.95;;;;;;;19.35;84.86;94997.19;5109134;27;20059;-78
2021/07/12 05:15:21;;;;;;;17.40;12.82;;;;;;;19.43;84.11;95007.91;5108902;27;20094;-77
2021/07/12 05:17:48;;;;;;;15.80;13.07;;;;;;;19.44;83.01;94992.84;5109599;27;20036;-78
2021/07/12 05:20:15;;;;;;;20.45;11.70;;;;;;;19.63;82.50;95001.59;5109802;27;20036;-78
2021/07/12 05:22:42;;;;;;;21.80;13.07;;;;;;;19.70;81.98;94995.16;5091237;28;20039;-77
2021/07/12 05:25:09;;;;;;;15.25;12.23;;;;;;;19.73;82.24;94997.25;5109454;27;20043;-78
2021/07/12 05:27:36;;;;;;;17.33;13.07;;;;;;;19.84;82.32;94996.06;5109537;27;20036;-78
2021/07/12 05:30:06;;;;;;;15.15;12.00;;;;;;;19.87;81.36;94995.50;5091024;28;20065;-77
2021/07/12 05:38:35;;;;;;;15.75;11.48;;;;;;;19.84;80.20;94996.06;5092150;27;20149;-69
2021/07/12 05:41:02;;;;;;;15.80;11.02;;;;;;;19.84;78.11;94980.22;5100875;28;20474;-69
2021/07/12 05:43:29;;;;;;;16.63;11.02;;;;;;;19.98;79.75;94991.63;5099230;28;20056;-68
2021/07/12 05:45:56;;;;;;;12.80;11.48;;;;;;;20.14;79.49;94994.06;5099633;28;20036;-69
2021/07/12 05:48:22;;;;;;;17.70;11.85;;;;;;;20.26;78.47;94991.78;5105578;28;20056;-68
2021/07/12 05:50:49;;;;;;;17.85;12.05;;;;;;;20.44;76.99;94988.31;5102142;28;20042;-68
2021/07/12 05:53:16;;;;;;;17.08;11.30;;;;;;;20.53;78.29;94992.97;5084815;28;20044;-68
2021/07/12 05:55:43;;;;;;;16.02;10.95;;;;;;;20.74;76.60;95007.44;5105156;28;20051;-69
2021/07/12 05:58:10;;;;;;;22.52;11.13;;;;;;;20.90;76.94;95004.53;5102656;28;20056;-68
2021/07/12 06:00:37;;;;;;;16.77;10.90;;;;;;;21.03;76.73;94998.47;5103910;28;20539;-69
2021/07/12 06:03:04;;;;;;;21.45;10.73;;;;;;;21.19;75.14;94997.13;5103912;28;20056;-69
2021/07/12 06:05:31;;;;;;;14.68;10.13;;;;;;;21.34;73.26;95000.56;5104708;28;20052;-68
2021/07/12 06:07:58;;;;;;;13.75;10.70;;;;;;;21.42;73.25;94999.84;5102031;27;20055;-69
2021/07/12 06:10:25;;;;;;;16.52;11.20;;;;;;;21.53;71.94;95003.88;5105173;28;20119;-68
2021/07/12 06:12:52;;;;;;;15.10;10.55;;;;;;;21.56;71.44;94995.34;5098955;28;20439;-69
2021/07/12 06:15:19;;;;;;;12.75;9.10;;;;;;;21.67;71.13;95008.41;5100872;28;20035;-69
2021/07/12 06:17:45;;;;;;;13.02;9.55;;;;;;;21.73;70.10;95009.84;5101266;28;20048;-69
2021/07/12 06:20:18;;;;;;;13.80;10.13;;;;;;;21.77;71.57;95005.56;5102603;28;20413;-69
2021/07/12 06:22:47;;;;;;;24.42;11.85;;;;;;;21.87;71.76;95005.31;5102605;28;20115;-69
2021/07/12 06:25:15;;;;;;;14.68;10.07;;;;;;;21.94;71.73;95008.34;5105391;28;20135;-66
2021/07/12 06:27:42;;;;;;;18.67;10.55;;;;;;;22.02;71.13;95000.75;5103211;28;20032;-67
2021/07/12 06:30:10;;;;;;;17.92;10.75;;;;;;;22.16;72.30;94996.19;5101063;28;20048;-66
2021/07/12 06:32:37;;;;;;;21.45;11.18;;;;;;;22.29;70.96;94995.41;5100912;28;20825;-67
2021/07/12 06:35:05;;;;;;;25.38;11.73;;;;;;;22.41;70.01;94997.50;5101407;28;20036;-67
2021/07/12 06:37:32;;;;;;;23.05;11.15;;;;;;;22.53;69.83;95004.94;5100153;28;20502;-67
2021/07/12 06:40:00;;;;;;;26.92;11.07;;;;;;;22.61;69.78;95012.16;5093153;28;20117;-67
2021/07/12 06:42:27;;;;;;;27.50;9.63;;;;;;;22.64;68.87;95000.94;5101704;28;20054;-67
2021/07/12 06:44:57;;;;;;;19.00;10.52;;;;;;;22.82;68.39;95001.06;5100255;28;20119;-67
2021/07/12 06:47:25;;;;;;;23.25;10.95;;;;;;;22.91;67.06;95009.84;5085956;28;20048;-67
2021/07/12 06:49:58;;;;;;;26.15;9.25;;;;;;;22.94;67.68;94998.63;5074465;28;20497;-67
2021/07/12 06:52:25;;;;;;;18.30;9.65;;;;;;;23.04;66.64;94998.38;5070233;28;20044;-67
2021/07/12 06:54:52;;;;;;;21.02;10.38;;;;;;;23.08;65.67;94999.34;5073075;28;20039;-66
2021/07/12 06:57:18;;;;;;;24.05;9.93;;;;;;;23.13;65.97;95001.06;5088750;28;20058;-67
2021/07/12 06:59:45;;;;;;;18.17;8.52;;;;;;;23.28;65.29;94994.56;5086717;28;20105;-68
2021/07/12 07:02:12;;;;;;;23.02;9.18;;;;;;;23.49;62.64;95002.75;5086578;28;20043;-66
2021/07/12 07:04:42;;;;;;;20.75;8.85;;;;;;;23.55;62.90;94990.09;5071875;28;20059;-67
2021/07/12 07:07:10;;;;;;;20.75;8.82;;;;;;;23.69;63.87;94993.41;5106642;27;20044;-67
2021/07/12 07:09:37;;;;;;;22.45;8.93;;;;;;;23.84;63.16;94994.88;5090604;28;20036;-67
2021/07/12 07:12:04;;;;;;;14.57;8.02;;;;;;;24.03;62.84;94984.72;5089478;28;20429;-67
2021/07/12 07:14:42;;;;;;;17.50;8.32;;;;;;;24.20;59.25;94999.13;5090689;28;20459;-68
2021/07/12 07:17:09;;;;;;;14.75;8.30;;;;;;;24.33;59.26;94994.75;5090776;28;20845;-68
2021/07/12 07:19:35;;;;;;;15.68;8.02;;;;;;;24.39;58.68;94998.81;5090546;28;20062;-68
2021/07/12 07:22:03;;;;;;;14.73;8.40;;;;;;;24.58;59.00;94999.28;5107539;27;20056;-67
2021/07/12 07:24:48;;;;;;;10.90;8.05;;;;;;;24.81;57.91;95012.41;5103469;27;20067;-68
2021/07/12 07:27:39;;;;;;;10.75;7.82;;;;;;;24.97;57.27;95005.47;5072372;28;20043;-67
2021/07/12 07:30:07;;;;;;;18.42;7.35;;;;;;;25.20;55.82;95002.56;5091888;28;20036;-68
2021/07/12 07:32:34;;;;;;;10.15;7.10;;;;;;;25.38;54.62;95004.06;5091902;28;20046;-68
2021/07/12 07:35:01;;;;;;;13.25;7.43;;;;;;;25.63;54.35;95001.59;5087176;28;20040;-67
2021/07/12 07:37:28;;;;;;;9.43;7.90;;;;;;;25.73;53.21;95003.91;5084231;28;20044;-67
2021/07/12 07:39:55;;;;;;;11.77;7.57;;;;;;;25.80;53.24;94991.94;5086170;28;20590;-68
2021/07/12 07:42:22;;;;;;;12.68;7.90;;;;;;;25.83;51.77;94983.28;5086581;28;20425;-67
2021/07/12 07:44:50;;;;;;;22.20;8.43;;;;;;;25.94;51.75;94992.50;5102038;28;20425;-68
2021/07/12 07:47:17;;;;;;;20.48;7.70;;;;;;;25.94;53.53;94987.94;5086563;28;20032;-67
2021/07/12 07:49:44;;;;;;;13.85;7.18;;;;;;;26.17;51.98;94994.84;5088199;28;20111;-67
2021/07/12 07:52:12;;;;;;;16.27;8.27;;;;;;;26.33;51.70;94982.47;5076040;28;20049;-67
2021/07/12 07:54:39;;;;;;;20.65;7.90;;;;;;;26.58;51.51;94983.34;5085097;28;20043;-67
2021/07/12 07:57:06;;;;;;;12.68;7.28;;;;;;;26.75;49.67;94992.31;5083988;28;20056;-67
2021/07/12 07:59:33;;;;;;;19.20;8.43;;;;;;;26.91;49.75;94989.78;5066460;28;20043;-67
2021/07/12 08:01:59;;;;;;;15.20;7.20;;;;;;;27.06;47.37;94987.28;5085348;28;20056;-68
2021/07/12 08:04:46;;;;;;;14.55;7.90;;;;;;;27.19;48.29;94985.38;5083976;28;20425;-67
2021/07/12 08:07:13;;;;;;;21.17;8.82;;;;;;;27.39;50.44;94994.44;5085102;28;20113;-67
2021/07/12 08:09:40;;;;;;;12.80;7.22;;;;;;;27.43;49.45;94975.84;5086126;28;20039;-67
2021/07/12 08:12:07;;;;;;;15.00;7.38;;;;;;;27.37;47.61;94980.63;5079842;28;20066;-67
2021/07/12 08:14:34;;;;;;;13.45;7.63;;;;;;;27.50;47.45;94984.06;5086146;28;20047;-66
2021/07/12 08:17:01;;;;;;;13.77;8.20;;;;;;;27.64;47.24;94989.84;5085608;28;20155;-67
2021/07/12 08:19:27;;;;;;;11.30;7.70;;;;;;;27.76;48.23;94982.94;5101569;27;22001;-68
2021/07/12 08:22:05;;;;;;;14.40;7.22;;;;;;;27.88;45.51;94982.13;5084260;28;20192;-68
2021/07/12 08:24:32;;;;;;;12.70;7.10;;;;;;;27.99;45.75;94973.31;5086105;28;20035;-68
2021/07/12 08:27:01;;;;;;;13.45;7.18;;;;;;;28.28;45.32;94989.41;5077686;28;20056;-68
2021/07/12 08:29:29;;;;;;;14.98;7.22;;;;;;;28.62;43.45;94987.31;5067242;28;20072;-68
2021/07/12 08:31:56;;;;;;;10.00;7.00;;;;;;;28.82;42.20;94990.88;5086228;28;20056;-67
2021/07/12 08:34:24;;;;;;;13.55;7.55;;;;;;;28.97;43.36;94982.88;5082807;28;20040;-68
2021/07/12 08:36:51;;;;;;;11.50;6.82;;;;;;;29.03;41.90;94964.59;5083708;28;20799;-68
2021/07/12 08:39:20;;;;;;;9.70;6.88;;;;;;;29.12;42.83;94978.63;5085029;28;20044;-68
2021/07/12 08:41:47;;;;;;;12.10;8.00;;;;;;;29.12;42.39;94978.63;5085843;28;20126;-68
2021/07/12 08:44:29;;;;;;;11.65;6.85;;;;;;;28.91;41.77;94983.44;5098226;27;20048;-68
2021/07/12 08:46:57;;;;;;;12.68;7.85;;;;;;;28.90;41.69;94976.53;5085887;28;20120;-68
2021/07/12 08:49:27;;;;;;;13.82;7.25;;;;;;;29.28;41.01;94985.91;5086269;28;20047;-67
2021/07/12 08:51:54;;;;;;;15.40;7.22;;;;;;;29.22;42.73;94976.56;5084499;28;20058;-67
2021/07/12 08:54:21;;;;;;;8.82;6.90;;;;;;;29.66;41.23;94989.84;5085500;28;20039;-67
2021/07/12 08:56:48;;;;;;;11.40;6.80;;;;;;;29.88;38.70;94981.16;5084992;28;20056;-67
2021/07/12 08:59:31;;;;;;;9.00;6.82;;;;;;;30.29;40.87;94984.31;5086005;28;20036;-66
2021/07/12 09:02:12;;;;;;;9.52;7.00;;;;;;;30.47;38.62;94976.63;5085236;28;20510;-67
2021/07/12 09:04:50;;;;;;;7.70;6.32;;;;;;;30.81;37.89;94989.50;5083626;28;20048;-67
2021/07/12 09:07:21;;;;;;;63.45;9.18;;;;;;;30.65;38.30;94982.34;5084674;28;20496;-66
2021/07/12 09:10:11;;;;;;;8.02;6.10;;;;;;;30.60;38.29;94987.22;5085816;28;20050;-67
2021/07/12 09:12:49;;;;;;;7.20;6.05;;;;;;;30.54;36.50;94976.00;5084030;28;20498;-66
2021/07/12 09:15:22;;;;;;;8.77;6.47;;;;;;;30.01;38.63;94989.88;5085113;28;20036;-66
2021/07/12 09:17:54;;;;;;;10.27;6.75;;;;;;;30.61;36.36;94984.19;5084530;28;20152;-66
2021/07/12 09:20:34;;;;;;;8.77;7.13;;;;;;;30.98;36.22;94981.00;5084541;28;20054;-67
2021/07/12 09:23:21;;;;;;;10.95;5.93;;;;;;;31.38;34.08;94977.03;5084239;28;20117;-66
2021/07/12 09:26:09;;;;;;;9.10;6.60;;;;;;;31.53;33.40;94975.38;5084563;28;20044;-66
2021/07/12 09:28:41;;;;;;;8.48;6.68;;;;;;;31.19;33.61;94969.84;5083864;28;20047;-66
2021/07/12 09:31:36;;;;;;;10.63;5.75;;;;;;;31.49;33.70;94987.22;5085366;28;20042;-66
2021/07/12 09:34:06;;;;;;;10.50;6.63;;;;;;;31.74;31.64;94982.97;5083667;28;20472;-66
2021/07/12 09:36:34;;;;;;;6.50;5.40;;;;;;;31.74;31.44;94988.34;5085081;28;20056;-67
2021/07/12 09:39:21;;;;;;;9.52;5.00;;;;;;;31.67;31.75;94993.63;5084338;28;20036;-67
2021/07/12 09:41:50;;;;;;;10.85;4.90;;;;;;;31.59;31.17;94992.00;5084828;28;20051;-66
2021/07/12 09:44:18;;;;;;;8.70;5.07;;;;;;;31.34;32.71;94997.72;5099927;28;20134;-67
2021/07/12 09:46:45;;;;;;;8.45;4.57;;;;;;;30.99;33.03;94993.34;5085024;28;20040;-67
2021/07/12 09:49:15;;;;;;;7.20;4.55;;;;;;;30.69;32.04;94996.59;5085475;28;20047;-66
2021/07/12 09:51:43;;;;;;;5.28;4.47;;;;;;;30.92;30.76;94998.59;5085322;28;20040;-67
2021/07/12 09:54:18;;;;;;;7.05;3.97;;;;;;;31.54;29.22;94995.00;5080118;28;20510;-66
2021/07/12 09:56:46;;;;;;;4.82;3.97;;;;;;;31.89;30.11;94991.25;5084119;28;20066;-66
2021/07/12 09:59:18;;;;;;;6.85;4.13;;;;;;;32.39;27.33;94994.59;5078079;28;20047;-66
2021/07/12 10:01:50;;;;;;;9.35;4.28;;;;;;;32.81;27.58;94992.75;5084706;28;20056;-66
2021/07/12 10:04:17;;;;;;;5.75;3.55;;;;;;;33.09;27.83;94986.88;5084323;28;20040;-66
2021/07/12 10:06:46;;;;;;;7.35;3.58;;;;;;;33.18;28.61;94995.47;5100689;28;20478;-66
2021/07/12 10:09:14;;;;;;;6.45;4.53;;;;;;;33.33;28.98;94997.13;5084951;28;20055;-66
2021/07/12 10:11:43;;;;;;;6.93;4.07;;;;;;;33.30;26.76;95002.50;5083789;28;20051;-66
2021/07/12 10:14:10;;;;;;;11.30;5.20;;;;;;;33.68;26.07;94998.56;5082032;28;20133;-66
2021/07/12 10:16:38;;;;;;;7.63;4.15;;;;;;;34.13;26.15;94997.66;5081222;28;20564;-66
2021/07/12 10:19:05;;;;;;;4.85;4.35;;;;;;;34.32;24.49;94999.31;5081434;28;20064;-66
2021/07/12 10:21:38;;;;;;;5.28;4.10;;;;;;;34.51;23.28;94990.13;5062891;28;20047;-66
2021/07/12 10:24:06;;;;;;;4.80;3.95;;;;;;;34.58;25.10;95000.97;5085255;28;20048;-68
2021/07/12 10:26:44;;;;;;;4.78;3.58;;;;;;;34.64;23.92;94994.00;5102035;27;20063;-66
2021/07/12 10:29:14;;;;;;;5.28;4.15;;;;;;;33.99;26.68;94988.31;5068740;28;20036;-66
2021/07/12 10:32:10;;;;;;;8.27;3.75;;;;;;;34.24;27.04;94990.41;5088928;28;20500;-67
2021/07/12 10:34:41;;;;;;;10.20;4.05;;;;;;;34.57;24.88;94994.75;5085267;28;20079;-67
2021/07/12 10:37:20;;;;;;;9.18;4.50;;;;;;;34.97;25.22;94978.63;5099419;28;20057;-66
2021/07/12 10:40:10;;;;;;;4.50;3.75;;;;;;;34.71;26.63;94980.53;5066141;28;20032;-66
2021/07/12 10:42:46;;;;;;;5.13;3.80;;;;;;;34.65;26.10;94984.75;5066353;28;20054;-67
2021/07/12 10:45:17;;;;;;;7.20;4.50;;;;;;;34.66;25.27;94980.88;5066069;28;20041;-66
2021/07/12 10:47:51;;;;;;;9.55;4.00;;;;;;;34.36;24.64;94973.06;5067654;28;20059;-66
2021/07/12 10:50:33;;;;;;;4.97;4.43;;;;;;;34.34;24.96;94978.06;5066926;28;20533;-66
2021/07/12 10:53:02;;;;;;;10.07;3.83;;;;;;;34.80;23.93;94958.53;5064253;28;20438;-67
2021/07/12 10:55:32;;;;;;;7.47;3.97;;;;;;;35.20;24.12;94973.69;5064926;28;20131;-66
2021/07/12 10:58:17;;;;;;;5.70;4.50;;;;;;;35.17;24.38;94971.72;5096586;28;20048;-67
2021/07/12 11:00:46;;;;;;;4.72;4.32;;;;;;;34.77;23.49;94967.41;5065837;28;20045;-66
2021/07/12 11:03:39;;;;;;;9.63;3.78;;;;;;;34.73;25.33;94970.09;5066587;28;20044;-67
2021/07/12 11:06:11;;;;;;;6.93;3.95;;;;;;;34.74;25.58;94963.53;5065342;28;20418;-66
2021/07/12 11:08:47;;;;;;;8.68;4.05;;;;;;;35.29;26.65;94967.09;5065387;28;20422;-67
2021/07/12 11:11:19;;;;;;;7.82;4.13;;;;;;;35.79;26.34;94967.06;5065706;28;20040;-66
2021/07/12 11:13:53;;;;;;;4.60;3.65;;;;;;;35.89;26.29;94976.31;5065605;28;20054;-67
2021/07/12 11:16:42;;;;;;;4.80;4.25;;;;;;;35.07;27.11;94983.28;5064896;28;20815;-67
2021/07/12 11:19:28;;;;;;;6.28;3.70;;;;;;;35.16;23.86;94978.25;5065606;28;20032;-67
2021/07/12 11:22:15;;;;;;;6.38;3.75;;;;;;;34.42;26.69;94988.53;5065046;28;20722;-67
2021/07/12 11:25:05;;;;;;;9.07;3.63;;;;;;;35.11;24.74;94988.72;5064877;28;20039;-66
2021/07/12 11:27:44;;;;;;;4.05;3.58;;;;;;;35.29;22.10;94988.75;5065229;28;20047;-66
2021/07/12 11:30:26;;;;;;;3.97;3.58;;;;;;;34.91;23.42;94975.53;5065329;28;20483;-66
2021/07/12 11:32:53;;;;;;;5.90;3.13;;;;;;;35.59;23.32;94964.72;5065697;28;20040;-67
2021/07/12 11:35:21;;;;;;;5.53;3.28;;;;;;;35.87;20.72;94963.16;5064971;28;20044;-66
2021/07/12 11:37:48;;;;;;;7.45;3.72;;;;;;;36.66;20.86;94968.28;5079058;28;20074;-67
2021/07/12 11:40:16;;;;;;;5.70;3.50;;;;;;;37.06;21.80;94963.38;5084803;28;20047;-67
2021/07/12 11:42:43;;;;;;;7.55;3.50;;;;;;;36.80;21.48;94966.66;5085597;28;20118;-67
2021/07/12 11:45:19;;;;;;;4.13;2.90;;;;;;;36.53;20.05;94953.63;5084842;28;20055;-67
2021/07/12 11:48:06;;;;;;;8.95;2.55;;;;;;;36.67;21.08;94959.00;5086085;28;20054;-67
2021/07/12 11:50:33;;;;;;;3.92;3.33;;;;;;;37.00;21.84;94937.81;5084939;28;20413;-67